Hamburg, Louisiana
Current Conditions -  °F | °C
As of 2:15 PM on Friday 21 Nov 2014 (Local Time) from KOPL Reporting Station
Scattered Clouds Scattered Clouds  
Wind Chill: 22°   Ceiling: Unl
Heat Index: 22°   Visibility: 10mi
Dew Point:   Wind: 15mph
Humidity: 36%   Direction: 140°SE
Pressure: 30.19"   Gusts: 23mph
Location:  31.03°N, 91.93°W
Report Text: KOPL 212015Z AUTO 14013G20KT 10SM SCT095 22/06 A3019 RMK AO2 T02180060
Loading
Personal Weather Stations






























Interactive Weather Map New forecast layout! Learn more

10-Day Weather Forecast

Advertisements
Track Severe Weather on mobile